sensor_id;sensor_type;location;lat;lon;timestamp;pressure;altitude;pressure_sealevel;temperature
71649;BMP180;59492;45.638;11.714;2022-10-28T00:01:12;102229.80;;;23.34
71649;BMP180;59492;45.638;11.714;2022-10-28T00:03:44;102231.40;;;23.30
71649;BMP180;59492;45.638;11.714;2022-10-28T00:06:15;102233.20;;;23.28
71649;BMP180;59492;45.638;11.714;2022-10-28T00:08:41;102231.60;;;23.24
71649;BMP180;59492;45.638;11.714;2022-10-28T00:11:09;102226.40;;;23.20
71649;BMP180;59492;45.638;11.714;2022-10-28T00:13:36;102225.20;;;23.20
71649;BMP180;59492;45.638;11.714;2022-10-28T00:16:10;102223.80;;;23.16
71649;BMP180;59492;45.638;11.714;2022-10-28T00:18:36;102222.40;;;23.20
71649;BMP180;59492;45.638;11.714;2022-10-28T00:21:08;102224.40;;;23.20
71649;BMP180;59492;45.638;11.714;2022-10-28T00:23:34;102226.40;;;23.20
71649;BMP180;59492;45.638;11.714;2022-10-28T00:26:14;102231.80;;;23.10
71649;BMP180;59492;45.638;11.714;2022-10-28T00:28:48;102231.60;;;23.10
71649;BMP180;59492;45.638;11.714;2022-10-28T00:31:15;102237.40;;;23.04
71649;BMP180;59492;45.638;11.714;2022-10-28T00:33:42;102236.20;;;23.00
71649;BMP180;59492;45.638;11.714;2022-10-28T00:36:31;102240.00;;;23.00
71649;BMP180;59492;45.638;11.714;2022-10-28T00:38:59;102242.80;;;22.90
71649;BMP180;59492;45.638;11.714;2022-10-28T00:41:28;102242.40;;;22.90
71649;BMP180;59492;45.638;11.714;2022-10-28T00:43:58;102241.40;;;22.90
71649;BMP180;59492;45.638;11.714;2022-10-28T00:46:29;102245.80;;;22.90
71649;BMP180;59492;45.638;11.714;2022-10-28T00:51:43;102243.20;;;22.90
71649;BMP180;59492;45.638;11.714;2022-10-28T00:54:11;102243.40;;;22.90
71649;BMP180;59492;45.638;11.714;2022-10-28T00:56:41;102245.20;;;22.90
71649;BMP180;59492;45.638;11.714;2022-10-28T00:59:16;102247.20;;;22.86
71649;BMP180;59492;45.638;11.714;2022-10-28T01:01:43;102247.00;;;22.80
71649;BMP180;59492;45.638;11.714;2022-10-28T01:04:09;102248.20;;;22.80
71649;BMP180;59492;45.638;11.714;2022-10-28T01:06:36;102248.00;;;22.80
71649;BMP180;59492;45.638;11.714;2022-10-28T01:09:02;102244.60;;;22.76
71649;BMP180;59492;45.638;11.714;2022-10-28T01:14:26;102242.80;;;22.66
71649;BMP180;59492;45.638;11.714;2022-10-28T01:17:17;102245.40;;;22.64
71649;BMP180;59492;45.638;11.714;2022-10-28T01:22:58;102238.40;;;22.70
71649;BMP180;59492;45.638;11.714;2022-10-28T01:34:02;102234.20;;;22.60
71649;BMP180;59492;45.638;11.714;2022-10-28T01:39:33;102228.20;;;22.54
71649;BMP180;59492;45.638;11.714;2022-10-28T01:47:25;102224.60;;;22.50
71649;BMP180;59492;45.638;11.714;2022-10-28T01:50:03;102223.20;;;22.46
71649;BMP180;59492;45.638;11.714;2022-10-28T01:52:31;102221.80;;;22.44
71649;BMP180;59492;45.638;11.714;2022-10-28T01:55:22;102219.80;;;22.50
71649;BMP180;59492;45.638;11.714;2022-10-28T01:57:49;102219.00;;;22.50
71649;BMP180;59492;45.638;11.714;2022-10-28T02:00:16;102216.00;;;22.50
71649;BMP180;59492;45.638;11.714;2022-10-28T02:02:43;102212.60;;;22.50
71649;BMP180;59492;45.638;11.714;2022-10-28T02:05:44;102211.40;;;22.48
71649;BMP180;59492;45.638;11.714;2022-10-28T02:16:50;102204.20;;;22.30
71649;BMP180;59492;45.638;11.714;2022-10-28T02:30:15;102192.80;;;22.36
71649;BMP180;59492;45.638;11.714;2022-10-28T02:33:14;102191.00;;;22.32
71649;BMP180;59492;45.638;11.714;2022-10-28T02:36:00;102190.20;;;22.28
71649;BMP180;59492;45.638;11.714;2022-10-28T02:38:35;102191.60;;;22.26
71649;BMP180;59492;45.638;11.714;2022-10-28T02:41:07;102191.60;;;22.26
71649;BMP180;59492;45.638;11.714;2022-10-28T02:43:38;102188.20;;;22.24
71649;BMP180;59492;45.638;11.714;2022-10-28T02:46:07;102178.80;;;22.22
71649;BMP180;59492;45.638;11.714;2022-10-28T02:48:40;102178.00;;;22.20
71649;BMP180;59492;45.638;11.714;2022-10-28T02:51:23;102172.60;;;22.20
71649;BMP180;59492;45.638;11.714;2022-10-28T02:57:01;102171.60;;;22.20
71649;BMP180;59492;45.638;11.714;2022-10-28T02:59:28;102170.40;;;22.30
71649;BMP180;59492;45.638;11.714;2022-10-28T03:01:55;102169.80;;;22.30
71649;BMP180;59492;45.638;11.714;2022-10-28T03:04:20;102171.40;;;22.22
71649;BMP180;59492;45.638;11.714;2022-10-28T03:06:46;102171.80;;;22.20
71649;BMP180;59492;45.638;11.714;2022-10-28T03:09:12;102171.60;;;22.20
71649;BMP180;59492;45.638;11.714;2022-10-28T03:11:37;102171.80;;;22.20
71649;BMP180;59492;45.638;11.714;2022-10-28T03:14:03;102173.40;;;22.18
71649;BMP180;59492;45.638;11.714;2022-10-28T03:16:28;102171.20;;;22.14
71649;BMP180;59492;45.638;11.714;2022-10-28T03:18:54;102171.80;;;22.12
71649;BMP180;59492;45.638;11.714;2022-10-28T03:21:20;102172.00;;;22.10
71649;BMP180;59492;45.638;11.714;2022-10-28T03:23:45;102174.00;;;22.10
71649;BMP180;59492;45.638;11.714;2022-10-28T03:26:11;102179.00;;;22.10
71649;BMP180;59492;45.638;11.714;2022-10-28T03:28:36;102188.00;;;22.14
71649;BMP180;59492;45.638;11.714;2022-10-28T03:31:02;102184.80;;;22.20
71649;BMP180;59492;45.638;11.714;2022-10-28T03:33:28;102188.20;;;22.18
71649;BMP180;59492;45.638;11.714;2022-10-28T03:35:53;102191.80;;;22.10
71649;BMP180;59492;45.638;11.714;2022-10-28T03:38:19;102200.80;;;22.10
71649;BMP180;59492;45.638;11.714;2022-10-28T03:40:48;102202.00;;;22.10
71649;BMP180;59492;45.638;11.714;2022-10-28T03:43:15;102204.00;;;22.06
71649;BMP180;59492;45.638;11.714;2022-10-28T03:45:41;102201.60;;;22.04
71649;BMP180;59492;45.638;11.714;2022-10-28T03:48:07;102201.80;;;22.04
71649;BMP180;59492;45.638;11.714;2022-10-28T03:50:32;102198.60;;;22.02
71649;BMP180;59492;45.638;11.714;2022-10-28T03:52:58;102193.80;;;22.00
71649;BMP180;59492;45.638;11.714;2022-10-28T03:55:23;102199.40;;;22.00
71649;BMP180;59492;45.638;11.714;2022-10-28T03:57:51;102198.40;;;22.06
71649;BMP180;59492;45.638;11.714;2022-10-28T04:00:17;102193.20;;;22.10
71649;BMP180;59492;45.638;11.714;2022-10-28T04:02:48;102194.00;;;22.08
71649;BMP180;59492;45.638;11.714;2022-10-28T04:05:14;102195.80;;;22.04
71649;BMP180;59492;45.638;11.714;2022-10-28T04:07:39;102202.40;;;22.00
71649;BMP180;59492;45.638;11.714;2022-10-28T04:10:05;102201.80;;;22.00
71649;BMP180;59492;45.638;11.714;2022-10-28T04:12:30;102205.80;;;22.00
71649;BMP180;59492;45.638;11.714;2022-10-28T04:14:56;102202.40;;;21.98
71649;BMP180;59492;45.638;11.714;2022-10-28T04:17:22;102205.80;;;21.96
71649;BMP180;59492;45.638;11.714;2022-10-28T04:19:47;102210.00;;;21.94
71649;BMP180;59492;45.638;11.714;2022-10-28T04:22:13;102207.60;;;21.92
71649;BMP180;59492;45.638;11.714;2022-10-28T04:24:38;102206.80;;;22.00
71649;BMP180;59492;45.638;11.714;2022-10-28T04:27:04;102205.20;;;22.00
71649;BMP180;59492;45.638;11.714;2022-10-28T04:29:30;102205.20;;;22.00
71649;BMP180;59492;45.638;11.714;2022-10-28T04:31:56;102201.60;;;21.98
71649;BMP180;59492;45.638;11.714;2022-10-28T04:34:21;102198.80;;;21.94
71649;BMP180;59492;45.638;11.714;2022-10-28T04:36:47;102198.40;;;21.92
71649;BMP180;59492;45.638;11.714;2022-10-28T04:39:12;102202.20;;;21.90
71649;BMP180;59492;45.638;11.714;2022-10-28T04:41:38;102198.40;;;21.90
71649;BMP180;59492;45.638;11.714;2022-10-28T04:44:04;102194.00;;;21.90
71649;BMP180;59492;45.638;11.714;2022-10-28T04:46:30;102191.80;;;21.90
71649;BMP180;59492;45.638;11.714;2022-10-28T04:48:56;102199.40;;;21.88
71649;BMP180;59492;45.638;11.714;2022-10-28T04:51:21;102199.40;;;21.90
71649;BMP180;59492;45.638;11.714;2022-10-28T04:53:47;102198.80;;;21.94
71649;BMP180;59492;45.638;11.714;2022-10-28T04:56:12;102196.00;;;21.90
71649;BMP180;59492;45.638;11.714;2022-10-28T04:58:38;102187.20;;;21.90
71649;BMP180;59492;45.638;11.714;2022-10-28T05:01:05;102188.20;;;21.90
71649;BMP180;59492;45.638;11.714;2022-10-28T05:03:31;102184.00;;;21.90
71649;BMP180;59492;45.638;11.714;2022-10-28T05:05:57;102183.80;;;21.86
71649;BMP180;59492;45.638;11.714;2022-10-28T05:08:23;102186.40;;;21.84
71649;BMP180;59492;45.638;11.714;2022-10-28T05:10:48;102187.20;;;21.82
71649;BMP180;59492;45.638;11.714;2022-10-28T05:13:16;102185.00;;;21.80
71649;BMP180;59492;45.638;11.714;2022-10-28T05:15:42;102185.00;;;21.80
71649;BMP180;59492;45.638;11.714;2022-10-28T05:18:08;102183.80;;;21.80
71649;BMP180;59492;45.638;11.714;2022-10-28T05:20:33;102183.40;;;21.88
71649;BMP180;59492;45.638;11.714;2022-10-28T05:22:59;102187.00;;;21.90
71649;BMP180;59492;45.638;11.714;2022-10-28T05:25:25;102183.60;;;21.90
71649;BMP180;59492;45.638;11.714;2022-10-28T05:27:51;102177.20;;;21.84
71649;BMP180;59492;45.638;11.714;2022-10-28T05:30:17;102179.80;;;21.80
71649;BMP180;59492;45.638;11.714;2022-10-28T05:32:43;102178.20;;;21.80
71649;BMP180;59492;45.638;11.714;2022-10-28T05:35:09;102180.00;;;21.80
71649;BMP180;59492;45.638;11.714;2022-10-28T05:37:35;102178.40;;;21.80
71649;BMP180;59492;45.638;11.714;2022-10-28T05:40:01;102174.80;;;21.78
71649;BMP180;59492;45.638;11.714;2022-10-28T05:42:26;102176.80;;;21.76
71649;BMP180;59492;45.638;11.714;2022-10-28T05:44:52;102179.80;;;21.74
71649;BMP180;59492;45.638;11.714;2022-10-28T05:47:17;102179.00;;;21.72
71649;BMP180;59492;45.638;11.714;2022-10-28T05:49:43;102180.20;;;21.80
71649;BMP180;59492;45.638;11.714;2022-10-28T05:52:08;102177.60;;;21.80
71649;BMP180;59492;45.638;11.714;2022-10-28T05:54:34;102179.40;;;21.80
71649;BMP180;59492;45.638;11.714;2022-10-28T05:56:59;102184.00;;;21.80
71649;BMP180;59492;45.638;11.714;2022-10-28T05:59:25;102185.80;;;21.80
71649;BMP180;59492;45.638;11.714;2022-10-28T06:01:51;102187.00;;;21.78
71649;BMP180;59492;45.638;11.714;2022-10-28T06:04:16;102189.60;;;21.74
71649;BMP180;59492;45.638;11.714;2022-10-28T06:06:42;102189.40;;;21.70
71649;BMP180;59492;45.638;11.714;2022-10-28T06:09:07;102193.00;;;21.70
71649;BMP180;59492;45.638;11.714;2022-10-28T06:11:36;102188.40;;;21.70
71649;BMP180;59492;45.638;11.714;2022-10-28T06:14:01;102195.60;;;21.70
71649;BMP180;59492;45.638;11.714;2022-10-28T06:16:27;102194.20;;;21.80
71649;BMP180;59492;45.638;11.714;2022-10-28T06:18:53;102194.60;;;21.80
71649;BMP180;59492;45.638;11.714;2022-10-28T06:21:18;102197.40;;;21.80
71649;BMP180;59492;45.638;11.714;2022-10-28T06:23:45;102195.80;;;21.80
71649;BMP180;59492;45.638;11.714;2022-10-28T06:26:11;102194.00;;;21.80
71649;BMP180;59492;45.638;11.714;2022-10-28T06:28:36;102194.60;;;21.80
71649;BMP180;59492;45.638;11.714;2022-10-28T06:31:06;102197.40;;;21.80
71649;BMP180;59492;45.638;11.714;2022-10-28T06:33:33;102196.20;;;21.78
71649;BMP180;59492;45.638;11.714;2022-10-28T06:36:00;102193.40;;;21.86
71649;BMP180;59492;45.638;11.714;2022-10-28T06:38:27;102191.80;;;21.90
71649;BMP180;59492;45.638;11.714;2022-10-28T06:40:53;102202.80;;;21.90
71649;BMP180;59492;45.638;11.714;2022-10-28T06:43:18;102204.80;;;21.90
71649;BMP180;59492;45.638;11.714;2022-10-28T06:45:44;102205.60;;;21.90
71649;BMP180;59492;45.638;11.714;2022-10-28T06:48:11;102204.40;;;21.90
71649;BMP180;59492;45.638;11.714;2022-10-28T06:50:37;102213.40;;;21.90
71649;BMP180;59492;45.638;11.714;2022-10-28T06:53:03;102206.40;;;21.90
71649;BMP180;59492;45.638;11.714;2022-10-28T06:55:29;102210.20;;;21.90
71649;BMP180;59492;45.638;11.714;2022-10-28T06:58:02;102209.80;;;21.90
71649;BMP180;59492;45.638;11.714;2022-10-28T07:00:29;102212.80;;;22.00
71649;BMP180;59492;45.638;11.714;2022-10-28T07:02:56;102219.40;;;22.00
71649;BMP180;59492;45.638;11.714;2022-10-28T07:05:22;102221.00;;;22.00
71649;BMP180;59492;45.638;11.714;2022-10-28T07:07:49;102225.20;;;22.00
71649;BMP180;59492;45.638;11.714;2022-10-28T07:10:14;102229.20;;;22.00
71649;BMP180;59492;45.638;11.714;2022-10-28T07:12:40;102230.60;;;22.08
71649;BMP180;59492;45.638;11.714;2022-10-28T07:15:06;102235.20;;;22.10
71649;BMP180;59492;45.638;11.714;2022-10-28T07:17:32;102238.20;;;22.30
71649;BMP180;59492;45.638;11.714;2022-10-28T07:19:57;102237.20;;;22.54
71649;BMP180;59492;45.638;11.714;2022-10-28T07:22:25;102233.60;;;22.88
71649;BMP180;59492;45.638;11.714;2022-10-28T07:24:51;102235.00;;;23.32
71649;BMP180;59492;45.638;11.714;2022-10-28T07:27:17;102235.00;;;23.64
71649;BMP180;59492;45.638;11.714;2022-10-28T07:29:49;102234.00;;;23.92
71649;BMP180;59492;45.638;11.714;2022-10-28T07:32:23;102234.60;;;24.24
71649;BMP180;59492;45.638;11.714;2022-10-28T07:34:54;102233.20;;;24.48
71649;BMP180;59492;45.638;11.714;2022-10-28T07:37:29;102232.00;;;24.78
71649;BMP180;59492;45.638;11.714;2022-10-28T07:40:05;102232.60;;;25.00
71649;BMP180;59492;45.638;11.714;2022-10-28T07:42:38;102242.00;;;25.28
71649;BMP180;59492;45.638;11.714;2022-10-28T07:45:06;102243.40;;;25.48
71649;BMP180;59492;45.638;11.714;2022-10-28T07:47:37;102249.00;;;25.74
71649;BMP180;59492;45.638;11.714;2022-10-28T07:50:06;102245.00;;;25.92
71649;BMP180;59492;45.638;11.714;2022-10-28T07:52:34;102242.80;;;26.16
71649;BMP180;59492;45.638;11.714;2022-10-28T07:55:01;102240.00;;;26.42
71649;BMP180;59492;45.638;11.714;2022-10-28T07:57:26;102242.40;;;26.64
71649;BMP180;59492;45.638;11.714;2022-10-28T07:59:52;102237.00;;;26.86
71649;BMP180;59492;45.638;11.714;2022-10-28T08:02:20;102240.60;;;27.08
71649;BMP180;59492;45.638;11.714;2022-10-28T08:04:46;102243.20;;;27.26
71649;BMP180;59492;45.638;11.714;2022-10-28T08:07:12;102241.60;;;27.42
71649;BMP180;59492;45.638;11.714;2022-10-28T08:09:39;102240.60;;;27.62
71649;BMP180;59492;45.638;11.714;2022-10-28T08:12:06;102246.40;;;27.78
71649;BMP180;59492;45.638;11.714;2022-10-28T08:14:32;102240.60;;;27.92
71649;BMP180;59492;45.638;11.714;2022-10-28T08:16:57;102243.40;;;28.06
71649;BMP180;59492;45.638;11.714;2022-10-28T08:19:23;102242.80;;;28.18
71649;BMP180;59492;45.638;11.714;2022-10-28T08:21:49;102243.00;;;28.32
71649;BMP180;59492;45.638;11.714;2022-10-28T08:24:14;102239.20;;;28.42
71649;BMP180;59492;45.638;11.714;2022-10-28T08:26:40;102244.60;;;28.52
71649;BMP180;59492;45.638;11.714;2022-10-28T08:29:05;102249.00;;;28.50
71649;BMP180;59492;45.638;11.714;2022-10-28T08:31:33;102250.80;;;28.44
71649;BMP180;59492;45.638;11.714;2022-10-28T08:33:58;102254.80;;;28.36
71649;BMP180;59492;45.638;11.714;2022-10-28T08:36:24;102252.80;;;28.30
71649;BMP180;59492;45.638;11.714;2022-10-28T08:38:50;102250.20;;;28.20
71649;BMP180;59492;45.638;11.714;2022-10-28T08:46:48;102254.20;;;28.10
71649;BMP180;59492;45.638;11.714;2022-10-28T08:49:19;102253.00;;;28.08
71649;BMP180;59492;45.638;11.714;2022-10-28T08:52:01;102250.80;;;28.00
71649;BMP180;59492;45.638;11.714;2022-10-28T08:55:05;102257.80;;;28.00
71649;BMP180;59492;45.638;11.714;2022-10-28T08:57:39;102254.80;;;28.00
71649;BMP180;59492;45.638;11.714;2022-10-28T09:00:08;102257.80;;;27.92
71649;BMP180;59492;45.638;11.714;2022-10-28T09:05:21;102251.80;;;27.90
71649;BMP180;59492;45.638;11.714;2022-10-28T09:07:48;102248.60;;;27.90
71649;BMP180;59492;45.638;11.714;2022-10-28T09:10:15;102249.60;;;27.90
71649;BMP180;59492;45.638;11.714;2022-10-28T09:12:57;102246.20;;;27.86
71649;BMP180;59492;45.638;11.714;2022-10-28T09:18:24;102250.40;;;27.80
71649;BMP180;59492;45.638;11.714;2022-10-28T09:20:56;102250.00;;;27.80
71649;BMP180;59492;45.638;11.714;2022-10-28T09:23:29;102249.80;;;27.80
71649;BMP180;59492;45.638;11.714;2022-10-28T09:26:17;102255.80;;;27.80
71649;BMP180;59492;45.638;11.714;2022-10-28T09:31:40;102256.20;;;27.70
71649;BMP180;59492;45.638;11.714;2022-10-28T09:34:09;102260.80;;;27.70
71649;BMP180;59492;45.638;11.714;2022-10-28T09:36:44;102259.60;;;27.70
71649;BMP180;59492;45.638;11.714;2022-10-28T09:39:16;102261.40;;;27.66
71649;BMP180;59492;45.638;11.714;2022-10-28T09:41:45;102265.20;;;27.60
71649;BMP180;59492;45.638;11.714;2022-10-28T09:44:59;102266.00;;;27.60
71649;BMP180;59492;45.638;11.714;2022-10-28T09:47:15;102265.00;;;27.60
71649;BMP180;59492;45.638;11.714;2022-10-28T09:49:42;102267.80;;;27.52
71649;BMP180;59492;45.638;11.714;2022-10-28T09:52:17;102268.40;;;27.50
71649;BMP180;59492;45.638;11.714;2022-10-28T09:54:50;102261.60;;;27.50
71649;BMP180;59492;45.638;11.714;2022-10-28T09:57:17;102261.20;;;27.50
71649;BMP180;59492;45.638;11.714;2022-10-28T09:59:43;102260.00;;;27.50
71649;BMP180;59492;45.638;11.714;2022-10-28T10:02:28;102261.80;;;27.40
71649;BMP180;59492;45.638;11.714;2022-10-28T10:04:58;102263.40;;;27.40
71649;BMP180;59492;45.638;11.714;2022-10-28T10:07:34;102259.20;;;27.40
71649;BMP180;59492;45.638;11.714;2022-10-28T10:10:05;102259.40;;;27.30
71649;BMP180;59492;45.638;11.714;2022-10-28T10:12:32;102258.40;;;27.30
71649;BMP180;59492;45.638;11.714;2022-10-28T10:14:58;102256.80;;;27.30
71649;BMP180;59492;45.638;11.714;2022-10-28T10:17:37;102257.60;;;27.30
71649;BMP180;59492;45.638;11.714;2022-10-28T10:20:10;102258.20;;;27.20
71649;BMP180;59492;45.638;11.714;2022-10-28T10:22:37;102256.00;;;27.20
71649;BMP180;59492;45.638;11.714;2022-10-28T10:25:21;102253.80;;;27.10
71649;BMP180;59492;45.638;11.714;2022-10-28T10:28:04;102252.40;;;27.10
71649;BMP180;59492;45.638;11.714;2022-10-28T10:30:45;102253.20;;;27.06
71649;BMP180;59492;45.638;11.714;2022-10-28T10:33:21;102249.80;;;27.00
71649;BMP180;59492;45.638;11.714;2022-10-28T10:36:12;102245.60;;;27.00
71649;BMP180;59492;45.638;11.714;2022-10-28T10:38:52;102243.00;;;26.98
71649;BMP180;59492;45.638;11.714;2022-10-28T10:41:41;102242.60;;;26.90
71649;BMP180;59492;45.638;11.714;2022-10-28T10:44:33;102238.60;;;26.86
71649;BMP180;59492;45.638;11.714;2022-10-28T10:49:28;102228.40;;;26.80
71649;BMP180;59492;45.638;11.714;2022-10-28T10:52:00;102228.80;;;26.70
71649;BMP180;59492;45.638;11.714;2022-10-28T10:54:29;102226.80;;;26.70
71649;BMP180;59492;45.638;11.714;2022-10-28T10:57:19;102224.60;;;26.60
71649;BMP180;59492;45.638;11.714;2022-10-28T10:59:48;102223.00;;;26.60
71649;BMP180;59492;45.638;11.714;2022-10-28T11:02:27;102222.80;;;26.56
71649;BMP180;59492;45.638;11.714;2022-10-28T11:05:03;102219.40;;;26.50
71649;BMP180;59492;45.638;11.714;2022-10-28T11:07:31;102207.40;;;26.44
71649;BMP180;59492;45.638;11.714;2022-10-28T11:09:57;102207.20;;;26.40
71649;BMP180;59492;45.638;11.714;2022-10-28T11:12:32;102208.20;;;26.40
71649;BMP180;59492;45.638;11.714;2022-10-28T11:17:30;102205.80;;;26.30
71649;BMP180;59492;45.638;11.714;2022-10-28T11:19:58;102201.80;;;26.26
71649;BMP180;59492;45.638;11.714;2022-10-28T11:22:40;102199.80;;;26.20
71649;BMP180;59492;45.638;11.714;2022-10-28T11:36:37;102187.40;;;25.98
71649;BMP180;59492;45.638;11.714;2022-10-28T11:39:14;102187.80;;;25.90
71649;BMP180;59492;45.638;11.714;2022-10-28T11:42:17;102176.80;;;25.90
71649;BMP180;59492;45.638;11.714;2022-10-28T11:48:00;102172.20;;;25.80
71649;BMP180;59492;45.638;11.714;2022-10-28T12:05:07;102154.80;;;25.60
71649;BMP180;59492;45.638;11.714;2022-10-28T12:10:09;102150.80;;;25.48
71649;BMP180;59492;45.638;11.714;2022-10-28T12:12:44;102143.60;;;25.40
71649;BMP180;59492;45.638;11.714;2022-10-28T12:18:23;102141.60;;;25.38
71649;BMP180;59492;45.638;11.714;2022-10-28T12:23:40;102125.60;;;25.30
71649;BMP180;59492;45.638;11.714;2022-10-28T12:26:15;102127.40;;;25.30
71649;BMP180;59492;45.638;11.714;2022-10-28T12:28:52;102127.40;;;25.20
71649;BMP180;59492;45.638;11.714;2022-10-28T12:31:29;102126.40;;;25.20
71649;BMP180;59492;45.638;11.714;2022-10-28T12:34:03;102120.20;;;25.12
71649;BMP180;59492;45.638;11.714;2022-10-28T12:37:10;102117.20;;;25.10
71649;BMP180;59492;45.638;11.714;2022-10-28T12:39:33;102117.40;;;25.10
71649;BMP180;59492;45.638;11.714;2022-10-28T12:42:10;102112.00;;;25.10
71649;BMP180;59492;45.638;11.714;2022-10-28T12:44:37;102110.00;;;25.00
71649;BMP180;59492;45.638;11.714;2022-10-28T12:47:24;102109.20;;;25.00
71649;BMP180;59492;45.638;11.714;2022-10-28T12:49:59;102104.40;;;24.96
71649;BMP180;59492;45.638;11.714;2022-10-28T12:55:29;102095.40;;;24.90
71649;BMP180;59492;45.638;11.714;2022-10-28T12:58:34;102098.80;;;24.88
71649;BMP180;59492;45.638;11.714;2022-10-28T13:01:23;102099.80;;;24.80
71649;BMP180;59492;45.638;11.714;2022-10-28T13:03:49;102099.80;;;24.80
71649;BMP180;59492;45.638;11.714;2022-10-28T13:09:18;102098.60;;;24.74
71649;BMP180;59492;45.638;11.714;2022-10-28T13:14:38;102087.60;;;24.70
71649;BMP180;59492;45.638;11.714;2022-10-28T13:17:37;102091.20;;;24.60
71649;BMP180;59492;45.638;11.714;2022-10-28T13:20:29;102086.40;;;24.60
71649;BMP180;59492;45.638;11.714;2022-10-28T13:28:34;102082.00;;;24.50
71649;BMP180;59492;45.638;11.714;2022-10-28T13:31:06;102081.20;;;24.50
71649;BMP180;59492;45.638;11.714;2022-10-28T13:33:34;102084.00;;;24.46
71649;BMP180;59492;45.638;11.714;2022-10-28T13:36:19;102080.40;;;24.44
71649;BMP180;59492;45.638;11.714;2022-10-28T13:39:00;102080.60;;;24.40
71649;BMP180;59492;45.638;11.714;2022-10-28T13:41:38;102079.40;;;24.40
71649;BMP180;59492;45.638;11.714;2022-10-28T13:49:35;102075.60;;;24.32
71649;BMP180;59492;45.638;11.714;2022-10-28T13:57:27;102073.80;;;24.40
71649;BMP180;59492;45.638;11.714;2022-10-28T14:02:39;102069.80;;;24.40
71649;BMP180;59492;45.638;11.714;2022-10-28T14:05:09;102067.40;;;24.38
71649;BMP180;59492;45.638;11.714;2022-10-28T14:07:38;102069.40;;;24.40
71649;BMP180;59492;45.638;11.714;2022-10-28T14:10:25;102069.80;;;24.40
71649;BMP180;59492;45.638;11.714;2022-10-28T14:12:56;102070.60;;;24.34
71649;BMP180;59492;45.638;11.714;2022-10-28T14:15:25;102072.00;;;24.36
71649;BMP180;59492;45.638;11.714;2022-10-28T14:17:58;102069.80;;;24.34
71649;BMP180;59492;45.638;11.714;2022-10-28T14:20:37;102069.80;;;24.30
71649;BMP180;59492;45.638;11.714;2022-10-28T14:33:50;102072.60;;;24.20
71649;BMP180;59492;45.638;11.714;2022-10-28T14:37:10;102077.60;;;24.18
71649;BMP180;59492;45.638;11.714;2022-10-28T14:39:39;102078.40;;;24.10
71649;BMP180;59492;45.638;11.714;2022-10-28T14:50:25;102079.20;;;24.10
71649;BMP180;59492;45.638;11.714;2022-10-28T14:52:56;102075.00;;;24.02
71649;BMP180;59492;45.638;11.714;2022-10-28T14:55:30;102077.60;;;24.02
71649;BMP180;59492;45.638;11.714;2022-10-28T15:00:54;102077.20;;;23.94
71649;BMP180;59492;45.638;11.714;2022-10-28T15:03:24;102073.40;;;23.90
71649;BMP180;59492;45.638;11.714;2022-10-28T15:05:49;102071.60;;;23.90
71649;BMP180;59492;45.638;11.714;2022-10-28T15:08:15;102072.00;;;23.90
71649;BMP180;59492;45.638;11.714;2022-10-28T15:10:40;102070.20;;;23.90
71649;BMP180;59492;45.638;11.714;2022-10-28T15:13:14;102067.80;;;23.84
71649;BMP180;59492;45.638;11.714;2022-10-28T15:15:51;102074.00;;;23.80
71649;BMP180;59492;45.638;11.714;2022-10-28T15:18:21;102074.20;;;23.80
71649;BMP180;59492;45.638;11.714;2022-10-28T15:20:47;102077.00;;;23.80
71649;BMP180;59492;45.638;11.714;2022-10-28T15:23:18;102075.00;;;23.78
71649;BMP180;59492;45.638;11.714;2022-10-28T15:25:44;102070.60;;;23.80
71649;BMP180;59492;45.638;11.714;2022-10-28T15:28:11;102072.80;;;23.84
71649;BMP180;59492;45.638;11.714;2022-10-28T15:30:39;102069.00;;;23.80
71649;BMP180;59492;45.638;11.714;2022-10-28T15:33:31;102073.60;;;23.80
71649;BMP180;59492;45.638;11.714;2022-10-28T15:36:24;102075.00;;;23.70
71649;BMP180;59492;45.638;11.714;2022-10-28T15:38:50;102068.60;;;23.70
71649;BMP180;59492;45.638;11.714;2022-10-28T15:41:38;102070.00;;;23.70
71649;BMP180;59492;45.638;11.714;2022-10-28T15:44:04;102065.20;;;23.60
71649;BMP180;59492;45.638;11.714;2022-10-28T15:46:32;102064.20;;;23.60
71649;BMP180;59492;45.638;11.714;2022-10-28T15:48:59;102067.60;;;23.60
71649;BMP180;59492;45.638;11.714;2022-10-28T15:51:26;102069.60;;;23.60
71649;BMP180;59492;45.638;11.714;2022-10-28T15:54:21;102070.80;;;23.56
71649;BMP180;59492;45.638;11.714;2022-10-28T15:56:57;102071.20;;;23.50
71649;BMP180;59492;45.638;11.714;2022-10-28T15:59:24;102071.60;;;23.50
71649;BMP180;59492;45.638;11.714;2022-10-28T16:01:50;102073.80;;;23.50
71649;BMP180;59492;45.638;11.714;2022-10-28T16:04:40;102080.20;;;23.48
71649;BMP180;59492;45.638;11.714;2022-10-28T16:07:07;102086.20;;;23.40
71649;BMP180;59492;45.638;11.714;2022-10-28T16:09:35;102088.40;;;23.40
71649;BMP180;59492;45.638;11.714;2022-10-28T16:12:11;102088.40;;;23.50
71649;BMP180;59492;45.638;11.714;2022-10-28T16:14:40;102092.60;;;23.50
71649;BMP180;59492;45.638;11.714;2022-10-28T16:17:24;102093.20;;;23.46
71649;BMP180;59492;45.638;11.714;2022-10-28T16:22:20;102089.00;;;23.40
71649;BMP180;59492;45.638;11.714;2022-10-28T16:24:47;102089.80;;;23.40
71649;BMP180;59492;45.638;11.714;2022-10-28T16:27:22;102096.00;;;23.34
71649;BMP180;59492;45.638;11.714;2022-10-28T16:29:48;102096.20;;;23.30
71649;BMP180;59492;45.638;11.714;2022-10-28T16:32:15;102100.60;;;23.30
71649;BMP180;59492;45.638;11.714;2022-10-28T16:34:41;102100.60;;;23.30
71649;BMP180;59492;45.638;11.714;2022-10-28T16:37:23;102097.80;;;23.30
71649;BMP180;59492;45.638;11.714;2022-10-28T16:39:49;102098.40;;;23.20
71649;BMP180;59492;45.638;11.714;2022-10-28T16:42:16;102100.80;;;23.22